Main page
METAR-TAF:

METAR-TAF

Airports :

Roman Tmetuchl International Airport

Koror, Babeldaob, Palau

latitude: 07-22N, longitude: 134-32E, elevation: 54 m

Current weather observation

The report was made 24 minutes ago, at 17:50 UTC
Calm wind
Temperature 25°C
Humidity 94%
Pressure 1009 hPa
Visibility: 24.1 km
Few clouds at a height of 1600 ft
Scattered clouds at a height of 12000 ft
Broken clouds at a height of 30000 ft

METAR: PTRO 201750Z 00000KT 15SM FEW016 SCT120 BKN300 25/24 A2979

Time: 03:14 (18:14 UTC)

Forecast

The report was made 54 minutes ago, at 17:20 UTC
Forecast valid from 20 at 18 UTC to 21 at 18 UTC
Wind 3 kt from the North/Northwest
Visibility: 10 km
Scattered clouds at a height of 1600 ft
Scattered clouds at a height of 12000 ft
showers in vicinity

TAF: PTRO 201720Z 2018/2118 34003KT P6SM VCSH SCT016 SCT120

Weather observations and forecasts of more than 4000 airports (METAR and TAF reports).

The available stations are represented by yellow and red dots on the map.

Hover mouse over dot to see the name of the station.

Then click to see weather observations and forecasts.

To change the map : click on the green buttons with a black cross to zoom in, on the green button with a dash to zoom out, or on the green arrows for adjacent maps.


METAR-TAF: